createdAt,value
2024-02-01T00:00:08.416Z,0
2024-02-01T00:01:14.570Z,0
2024-02-01T00:02:20.797Z,0
2024-02-01T00:03:25.873Z,0
2024-02-01T00:04:32.067Z,0
2024-02-01T00:05:38.328Z,0
2024-02-01T00:06:44.116Z,0
2024-02-01T00:07:50.556Z,0
2024-02-01T00:08:56.741Z,0
2024-02-01T00:10:02.775Z,0
2024-02-01T00:11:08.841Z,0
2024-02-01T00:12:14.905Z,0
2024-02-01T00:13:21.217Z,0
2024-02-01T00:14:27.367Z,0
2024-02-01T00:15:33.384Z,0
2024-02-01T00:16:39.707Z,0
2024-02-01T00:17:44.897Z,0
2024-02-01T00:18:50.692Z,0
2024-02-01T00:19:57.162Z,0
2024-02-01T00:21:03.277Z,0
2024-02-01T00:22:09.252Z,0
2024-02-01T00:23:15.607Z,0
2024-02-01T00:24:21.673Z,0
2024-02-01T00:25:27.543Z,0
2024-02-01T00:26:33.876Z,0
2024-02-01T00:27:40.237Z,0
2024-02-01T00:28:46.253Z,0
2024-02-01T00:29:52.150Z,0
2024-02-01T00:30:58.609Z,0
2024-02-01T00:32:03.684Z,0
2024-02-01T00:33:09.893Z,0
2024-02-01T00:34:16.019Z,0
2024-02-01T00:35:22.138Z,0
2024-02-01T00:36:28.200Z,0
2024-02-01T00:37:34.470Z,0
2024-02-01T00:38:40.366Z,0
2024-02-01T00:39:46.686Z,0
2024-02-01T00:40:52.596Z,0
2024-02-01T00:41:58.710Z,0
2024-02-01T00:43:05.189Z,0
2024-02-01T00:44:11.003Z,0
2024-02-01T00:45:17.144Z,0
2024-02-01T00:46:22.511Z,0
2024-02-01T00:47:28.499Z,0
2024-02-01T00:48:34.736Z,0
2024-02-01T00:49:40.929Z,0
2024-02-01T00:50:47.119Z,0
2024-02-01T00:51:53.355Z,0
2024-02-01T00:52:59.459Z,0
2024-02-01T00:54:05.327Z,0
2024-02-01T00:55:11.581Z,0
2024-02-01T00:56:17.695Z,0
2024-02-01T00:57:24.051Z,0
2024-02-01T00:58:30.198Z,0
2024-02-01T00:59:36.164Z,0
2024-02-01T01:00:41.416Z,0
2024-02-01T01:01:47.762Z,0
2024-02-01T01:02:53.628Z,0
2024-02-01T01:04:00.077Z,0
2024-02-01T01:05:05.888Z,0
2024-02-01T01:06:12.256Z,0
2024-02-01T01:07:18.478Z,0
2024-02-01T01:08:24.640Z,0
2024-02-01T01:09:30.825Z,0
2024-02-01T01:10:36.868Z,0
2024-02-01T01:11:43.104Z,0
2024-02-01T01:12:49.079Z,0
2024-02-01T01:13:55.284Z,0
2024-02-01T01:15:00.299Z,0
2024-02-01T01:16:06.664Z,0
2024-02-01T01:17:12.780Z,0
2024-02-01T01:18:18.876Z,0
2024-02-01T01:19:25.044Z,0
2024-02-01T01:20:30.926Z,0
2024-02-01T01:21:37.219Z,0
2024-02-01T01:22:43.407Z,0
2024-02-01T01:23:49.337Z,0
2024-02-01T01:24:55.788Z,0
2024-02-01T01:26:01.691Z,0
2024-02-01T01:27:08.036Z,0
2024-02-01T01:28:14.110Z,0
2024-02-01T01:29:19.328Z,0
2024-02-01T01:30:25.528Z,0
2024-02-01T01:31:31.666Z,0
2024-02-01T01:32:37.656Z,0
2024-02-01T01:33:43.865Z,0
2024-02-01T01:34:50.085Z,0
2024-02-01T01:35:56.231Z,0
2024-02-01T01:37:02.381Z,0
2024-02-01T01:38:08.442Z,0
2024-02-01T01:39:14.365Z,0
2024-02-01T01:40:20.536Z,0
2024-02-01T01:41:26.906Z,0
2024-02-01T01:42:33.183Z,0
2024-02-01T01:43:38.290Z,0
2024-02-01T01:44:44.420Z,0
2024-02-01T01:45:50.526Z,0
2024-02-01T01:46:56.765Z,0
2024-02-01T01:48:02.881Z,0
2024-02-01T01:49:08.951Z,0
2024-02-01T01:50:15.167Z,0
2024-02-01T01:51:21.263Z,0
2024-02-01T01:52:27.319Z,0
2024-02-01T01:53:33.552Z,0
2024-02-01T01:54:39.536Z,0
2024-02-01T01:55:45.804Z,0
2024-02-01T01:56:52.045Z,0
2024-02-01T01:57:57.141Z,0
2024-02-01T01:59:03.155Z,0
2024-02-01T02:00:09.453Z,0
2024-02-01T02:01:15.324Z,0
2024-02-01T02:02:21.739Z,0
2024-02-01T02:03:27.963Z,0
2024-02-01T02:04:34.004Z,0
2024-02-01T02:05:40.114Z,0
2024-02-01T02:06:45.980Z,0
2024-02-01T02:07:52.434Z,0
2024-02-01T02:08:58.645Z,0
2024-02-01T02:10:04.451Z,0
2024-02-01T02:11:10.554Z,0
2024-02-01T02:12:15.996Z,0
2024-02-01T02:13:22.050Z,0
2024-02-01T02:14:28.299Z,0
2024-02-01T02:15:34.437Z,0
2024-02-01T02:16:40.373Z,0
2024-02-01T02:17:46.727Z,0
2024-02-01T02:18:51.683Z,0
2024-02-01T02:19:58.098Z,0
2024-02-01T02:21:03.934Z,0
2024-02-01T02:22:10.299Z,0
2024-02-01T02:23:16.437Z,0
2024-02-01T02:24:22.638Z,0
2024-02-01T02:25:28.769Z,0
2024-02-01T02:26:34.825Z,0
2024-02-01T02:27:40.738Z,0
2024-02-01T02:28:47.236Z,0
2024-02-01T02:29:53.318Z,0
2024-02-01T02:30:59.452Z,0
2024-02-01T02:32:05.373Z,0
2024-02-01T02:33:10.496Z,0
2024-02-01T02:34:16.913Z,0
2024-02-01T02:35:23.044Z,0
2024-02-01T02:36:29.058Z,0
2024-02-01T02:37:35.151Z,0
2024-02-01T02:38:41.360Z,0
2024-02-01T02:39:47.366Z,0
2024-02-01T02:40:53.632Z,0
2024-02-01T02:41:59.797Z,0
2024-02-01T02:43:05.871Z,0
2024-02-01T02:44:12.244Z,0
2024-02-01T02:45:18.268Z,0
2024-02-01T02:46:24.569Z,0
2024-02-01T02:47:29.380Z,0
2024-02-01T02:48:35.650Z,0
2024-02-01T02:49:41.749Z,0
2024-02-01T02:50:47.805Z,0
2024-02-01T02:51:54.138Z,0
2024-02-01T02:53:00.092Z,0
2024-02-01T02:54:06.368Z,0
2024-02-01T02:55:12.501Z,0
2024-02-01T02:56:18.598Z,0
2024-02-01T02:57:24.863Z,0
2024-02-01T02:58:31.099Z,0
2024-02-01T02:59:36.979Z,0
2024-02-01T03:00:43.364Z,0
2024-02-01T03:01:48.580Z,0
2024-02-01T03:02:54.636Z,0
2024-02-01T03:04:00.795Z,0
2024-02-01T03:05:06.677Z,0
2024-02-01T03:06:12.955Z,0
2024-02-01T03:07:19.150Z,0
2024-02-01T03:08:25.411Z,0
2024-02-01T03:09:31.364Z,0
2024-02-01T03:10:37.607Z,0
2024-02-01T03:11:43.802Z,0
2024-02-01T03:12:49.684Z,0
2024-02-01T03:13:56.246Z,0
2024-02-01T03:15:02.164Z,0
2024-02-01T03:16:07.428Z,0
2024-02-01T03:17:13.614Z,0
2024-02-01T03:18:19.619Z,0
2024-02-01T03:19:25.705Z,0
2024-02-01T03:20:31.791Z,0
2024-02-01T03:21:37.927Z,0
2024-02-01T03:22:44.267Z,0
2024-02-01T03:23:50.489Z,0
2024-02-01T03:24:56.518Z,0
2024-02-01T03:26:02.762Z,0
2024-02-01T03:27:08.548Z,0
2024-02-01T03:28:14.943Z,0
2024-02-01T03:29:21.193Z,0
2024-02-01T03:30:27.298Z,0
2024-02-01T03:31:32.158Z,0
2024-02-01T03:32:38.668Z,0
2024-02-01T03:33:44.728Z,0
2024-02-01T03:34:50.915Z,0
2024-02-01T03:35:56.719Z,0
2024-02-01T03:37:03.216Z,0
2024-02-01T03:38:09.327Z,0
2024-02-01T03:39:15.496Z,0
2024-02-01T03:40:21.665Z,0
2024-02-01T03:41:27.791Z,0
2024-02-01T03:42:33.940Z,0
2024-02-01T03:43:39.906Z,0
2024-02-01T03:44:46.183Z,0
2024-02-01T03:45:51.301Z,0
2024-02-01T03:46:57.535Z,0
2024-02-01T03:48:03.595Z,0
2024-02-01T03:49:09.849Z,0
2024-02-01T03:50:16.100Z,0
2024-02-01T03:51:22.164Z,0
2024-02-01T03:52:28.327Z,0
2024-02-01T03:53:34.417Z,0
2024-02-01T03:54:40.612Z,0
2024-02-01T03:55:46.476Z,0
2024-02-01T03:56:52.869Z,0
2024-02-01T03:57:58.974Z,0
2024-02-01T03:59:05.245Z,0
2024-02-01T04:00:10.342Z,0
2024-02-01T04:01:16.171Z,0
2024-02-01T04:02:22.633Z,0
2024-02-01T04:03:28.728Z,0
2024-02-01T04:04:34.927Z,0
2024-02-01T04:05:40.997Z,0
2024-02-01T04:06:46.972Z,0
2024-02-01T04:07:53.359Z,0
2024-02-01T04:08:59.313Z,0
2024-02-01T04:10:05.624Z,0
2024-02-01T04:11:11.793Z,0
2024-02-01T04:12:17.916Z,0
2024-02-01T04:13:24.147Z,0
2024-02-01T04:14:29.242Z,0
2024-02-01T04:15:35.449Z,0
2024-02-01T04:16:41.547Z,0
2024-02-01T04:17:47.332Z,0
2024-02-01T04:18:53.864Z,0
2024-02-01T04:19:59.656Z,0
2024-02-01T04:21:06.067Z,0
2024-02-01T04:22:12.238Z,0
2024-02-01T04:23:18.279Z,0
2024-02-01T04:24:24.523Z,0
2024-02-01T04:25:30.721Z,0
2024-02-01T04:26:36.702Z,0
2024-02-01T04:27:42.918Z,0
2024-02-01T04:28:48.057Z,0
2024-02-01T04:29:54.245Z,0
2024-02-01T04:31:00.397Z,0
2024-02-01T04:32:06.505Z,0
2024-02-01T04:33:12.493Z,0
2024-02-01T04:34:18.497Z,0
2024-02-01T04:35:24.655Z,0
2024-02-01T04:36:30.966Z,0
2024-02-01T04:37:37.126Z,0
2024-02-01T04:38:43.394Z,0
2024-02-01T04:39:49.624Z,0
2024-02-01T04:40:55.638Z,0
2024-02-01T04:42:01.851Z,0
2024-02-01T04:43:06.988Z,0
2024-02-01T04:44:13.112Z,0
2024-02-01T04:45:18.934Z,0
2024-02-01T04:46:25.384Z,0
2024-02-01T04:47:31.572Z,0
2024-02-01T04:48:37.397Z,0
2024-02-01T04:49:43.796Z,0
2024-02-01T04:50:49.666Z,0
2024-02-01T04:51:56.072Z,0
2024-02-01T04:53:01.997Z,0
2024-02-01T04:54:08.506Z,0
2024-02-01T04:55:14.563Z,0
2024-02-01T04:56:20.831Z,0
2024-02-01T04:57:25.728Z,0
2024-02-01T04:58:31.997Z,0
2024-02-01T04:59:38.112Z,0
2024-02-01T05:00:43.977Z,0
2024-02-01T05:01:50.268Z,0
2024-02-01T05:02:56.265Z,0
2024-02-01T05:04:02.506Z,0
2024-02-01T05:05:08.765Z,0
2024-02-01T05:06:14.847Z,0
2024-02-01T05:07:20.828Z,0
2024-02-01T05:08:26.084Z,0
2024-02-01T05:09:31.268Z,0
2024-02-01T05:10:37.573Z,0
2024-02-01T05:11:43.460Z,0
2024-02-01T05:12:49.607Z,0
2024-02-01T05:13:55.881Z,0
2024-02-01T05:15:01.876Z,0
2024-02-01T05:16:08.023Z,0
2024-02-01T05:17:14.533Z,0
2024-02-01T05:18:20.303Z,0
2024-02-01T05:19:26.783Z,0
2024-02-01T05:20:32.655Z,0
2024-02-01T05:21:39.105Z,0
2024-02-01T05:22:45.186Z,0
2024-02-01T05:23:51.248Z,0
2024-02-01T05:24:56.450Z,0
2024-02-01T05:26:02.741Z,0
2024-02-01T05:27:08.753Z,0
2024-02-01T05:28:14.812Z,0
2024-02-01T05:29:21.116Z,0
2024-02-01T05:30:27.198Z,0
2024-02-01T05:31:33.063Z,0
2024-02-01T05:32:39.208Z,0
2024-02-01T05:33:45.642Z,0
2024-02-01T05:34:51.492Z,0
2024-02-01T05:35:57.895Z,0
2024-02-01T05:37:04.094Z,0
2024-02-01T05:38:10.285Z,0
2024-02-01T05:39:15.355Z,0
2024-02-01T05:40:21.420Z,0
2024-02-01T05:41:27.695Z,0
2024-02-01T05:42:33.858Z,0
2024-02-01T05:43:39.779Z,0
2024-02-01T05:44:46.147Z,0
2024-02-01T05:45:51.962Z,0
2024-02-01T05:46:58.367Z,0
2024-02-01T05:48:04.292Z,0
2024-02-01T05:49:10.529Z,0
2024-02-01T05:50:16.875Z,0
2024-02-01T05:51:22.634Z,0
2024-02-01T05:52:28.900Z,0
2024-02-01T05:53:34.239Z,0
2024-02-01T05:54:40.442Z,0
2024-02-01T05:55:46.485Z,0
2024-02-01T05:56:52.641Z,0
2024-02-01T05:57:58.616Z,0
2024-02-01T05:59:04.993Z,0
2024-02-01T06:00:10.141Z,0
2024-02-01T06:01:15.964Z,0
2024-02-01T06:02:22.391Z,0
2024-02-01T06:03:28.392Z,0
2024-02-01T06:04:34.713Z,0
2024-02-01T06:05:40.700Z,0
2024-02-01T06:06:46.838Z,0
2024-02-01T06:07:52.821Z,0
2024-02-01T06:08:58.986Z,0
2024-02-01T06:10:05.187Z,0
2024-02-01T06:11:11.265Z,0
2024-02-01T06:12:17.497Z,0
2024-02-01T06:13:23.541Z,0
2024-02-01T06:14:29.764Z,0
2024-02-01T06:15:34.847Z,0
2024-02-01T06:16:41.232Z,0
2024-02-01T06:17:47.122Z,0
2024-02-01T06:18:53.323Z,0
2024-02-01T06:19:59.736Z,0
2024-02-01T06:21:05.916Z,0
2024-02-01T06:22:11.989Z,0
2024-02-01T06:23:18.112Z,0
2024-02-01T06:24:24.297Z,0
2024-02-01T06:25:30.468Z,0
2024-02-01T06:26:36.554Z,0
2024-02-01T06:27:42.764Z,0
2024-02-01T06:28:48.853Z,0
2024-02-01T06:29:54.036Z,0
2024-02-01T06:31:00.204Z,0
2024-02-01T06:32:06.203Z,0
2024-02-01T06:33:12.500Z,0
2024-02-01T06:34:18.570Z,0
2024-02-01T06:35:24.496Z,0
2024-02-01T06:36:30.877Z,0
2024-02-01T06:37:37.052Z,0
2024-02-01T06:38:43.023Z,0
2024-02-01T06:39:49.350Z,0
2024-02-01T06:40:55.284Z,0
2024-02-01T06:42:01.655Z,0
2024-02-01T06:43:07.749Z,0
2024-02-01T06:44:12.958Z,0
2024-02-01T06:45:19.057Z,0
2024-02-01T06:46:25.252Z,0
2024-02-01T06:47:31.321Z,0
2024-02-01T06:48:37.423Z,0
2024-02-01T06:49:43.633Z,0
2024-02-01T06:50:49.771Z,0
2024-02-01T06:51:55.979Z,0
2024-02-01T06:53:02.122Z,0
2024-02-01T06:54:08.248Z,0
2024-02-01T06:55:14.399Z,0
2024-02-01T06:56:20.493Z,0
2024-02-01T06:57:26.627Z,0
2024-02-01T06:58:31.493Z,0
2024-02-01T06:59:37.968Z,0
2024-02-01T07:00:44.100Z,0
2024-02-01T07:01:50.255Z,0
2024-02-01T07:02:56.319Z,0
2024-02-01T07:04:02.518Z,0
2024-02-01T07:05:08.588Z,0
2024-02-01T07:06:14.846Z,0
2024-02-01T07:07:20.950Z,0
2024-02-01T07:08:27.070Z,0
2024-02-01T07:09:33.228Z,0
2024-02-01T07:10:39.354Z,0
2024-02-01T07:11:45.515Z,5
2024-02-01T07:12:50.652Z,5
2024-02-01T07:13:56.805Z,5
2024-02-01T07:15:03.001Z,5
2024-02-01T07:16:09.121Z,5
2024-02-01T07:17:15.263Z,5
2024-02-01T07:18:21.082Z,5
2024-02-01T07:19:27.368Z,5
2024-02-01T07:20:33.640Z,5
2024-02-01T07:21:39.832Z,5
2024-02-01T07:22:46.003Z,5
2024-02-01T07:23:52.016Z,11
2024-02-01T07:24:58.304Z,11
2024-02-01T07:26:04.457Z,11
2024-02-01T07:27:09.464Z,11
2024-02-01T07:28:15.703Z,11
2024-02-01T07:29:21.872Z,11
2024-02-01T07:30:27.953Z,16
2024-02-01T07:31:34.124Z,16
2024-02-01T07:32:40.041Z,16
2024-02-01T07:33:46.357Z,16
2024-02-01T07:34:52.573Z,16
2024-02-01T07:35:58.631Z,16
2024-02-01T07:37:04.829Z,16
2024-02-01T07:38:10.993Z,16
2024-02-01T07:39:16.921Z,11
2024-02-01T07:40:23.134Z,11
2024-02-01T07:41:28.476Z,11
2024-02-01T07:42:34.613Z,11
2024-02-01T07:43:40.701Z,11
2024-02-01T07:44:46.762Z,11
2024-02-01T07:45:53.049Z,11
2024-02-01T07:46:59.210Z,11
2024-02-01T07:48:05.039Z,11
2024-02-01T07:49:11.430Z,11
2024-02-01T07:50:17.658Z,11
2024-02-01T07:51:23.671Z,11
2024-02-01T07:52:29.872Z,11
2024-02-01T07:53:35.970Z,11
2024-02-01T07:54:42.179Z,11
2024-02-01T07:55:47.321Z,11
2024-02-01T07:56:53.447Z,16
2024-02-01T07:57:59.669Z,16
2024-02-01T07:59:05.676Z,16
2024-02-01T08:00:11.842Z,16
2024-02-01T08:01:17.979Z,16
2024-02-01T08:02:24.266Z,16
2024-02-01T08:03:30.190Z,16
2024-02-01T08:04:36.229Z,16
2024-02-01T08:05:42.634Z,16
2024-02-01T08:06:48.701Z,16
2024-02-01T08:07:54.884Z,16
2024-02-01T08:09:01.013Z,11
2024-02-01T08:10:06.173Z,16
2024-02-01T08:11:12.385Z,16
2024-02-01T08:12:18.527Z,11
2024-02-01T08:13:24.591Z,16
2024-02-01T08:14:30.470Z,16
2024-02-01T08:15:36.943Z,16
2024-02-01T08:16:43.048Z,22
2024-02-01T08:17:49.183Z,33
2024-02-01T08:18:55.213Z,45
2024-02-01T08:20:01.392Z,50
2024-02-01T08:21:07.554Z,45
2024-02-01T08:22:13.700Z,45
2024-02-01T08:23:19.902Z,45
2024-02-01T08:24:25.049Z,45
2024-02-01T08:25:31.043Z,45
2024-02-01T08:26:37.149Z,45
2024-02-01T08:27:43.491Z,45
2024-02-01T08:28:49.452Z,39
2024-02-01T08:29:55.794Z,39
2024-02-01T08:31:01.787Z,33
2024-02-01T08:32:07.810Z,33
2024-02-01T08:33:14.235Z,33
2024-02-01T08:34:20.343Z,28
2024-02-01T08:35:26.460Z,28
2024-02-01T08:36:32.674Z,22
2024-02-01T08:37:38.809Z,22
2024-02-01T08:38:43.932Z,22
2024-02-01T08:39:50.019Z,28
2024-02-01T08:40:56.238Z,28
2024-02-01T08:42:02.067Z,33
2024-02-01T08:43:08.218Z,33
2024-02-01T08:44:14.393Z,33
2024-02-01T08:45:20.501Z,33
2024-02-01T08:46:26.710Z,33
2024-02-01T08:47:33.014Z,33
2024-02-01T08:48:39.104Z,33
2024-02-01T08:49:45.277Z,33
2024-02-01T08:50:51.447Z,33
2024-02-01T08:51:57.535Z,39
2024-02-01T08:53:02.537Z,39
2024-02-01T08:54:08.874Z,39
2024-02-01T08:55:15.020Z,39
2024-02-01T08:56:20.963Z,33
2024-02-01T08:57:27.140Z,33
2024-02-01T08:58:33.400Z,33
2024-02-01T08:59:39.653Z,33
2024-02-01T09:00:45.587Z,33
2024-02-01T09:01:51.864Z,33
2024-02-01T09:02:57.864Z,33
2024-02-01T09:04:04.211Z,33
2024-02-01T09:05:10.272Z,33
2024-02-01T09:06:16.337Z,39
2024-02-01T09:07:21.425Z,39
2024-02-01T09:08:27.683Z,39
2024-02-01T09:09:33.702Z,45
2024-02-01T09:10:40.129Z,50
2024-02-01T09:11:46.004Z,56
2024-02-01T09:12:52.448Z,50
2024-02-01T09:13:58.302Z,50
2024-02-01T09:15:04.651Z,50
2024-02-01T09:16:10.834Z,56
2024-02-01T09:17:16.847Z,67
2024-02-01T09:18:23.018Z,73
2024-02-01T09:19:28.959Z,78
2024-02-01T09:20:35.345Z,78
2024-02-01T09:21:40.412Z,90
2024-02-01T09:22:46.721Z,95
2024-02-01T09:23:53.005Z,95
2024-02-01T09:24:58.838Z,90
2024-02-01T09:26:04.946Z,84
2024-02-01T09:27:11.169Z,78
2024-02-01T09:28:17.400Z,73
2024-02-01T09:29:23.338Z,78
2024-02-01T09:30:29.535Z,84
2024-02-01T09:31:35.832Z,84
2024-02-01T09:32:41.771Z,84
2024-02-01T09:33:48.242Z,78
2024-02-01T09:34:54.314Z,78
2024-02-01T09:35:59.520Z,73
2024-02-01T09:37:05.471Z,67
2024-02-01T09:38:11.770Z,61
2024-02-01T09:39:17.960Z,56
2024-02-01T09:41:29.873Z,56
2024-02-01T09:42:35.328Z,56
2024-02-01T09:43:41.561Z,56
2024-02-01T09:44:46.471Z,56
2024-02-01T09:45:51.883Z,56
2024-02-01T09:46:58.004Z,61
2024-02-01T09:48:04.021Z,61
2024-02-01T09:49:10.142Z,56
2024-02-01T09:50:16.369Z,56
2024-02-01T09:51:22.529Z,56
2024-02-01T09:52:28.469Z,61
2024-02-01T09:53:34.497Z,61
2024-02-01T09:54:40.980Z,67
2024-02-01T09:55:47.099Z,78
2024-02-01T09:56:53.252Z,78
2024-02-01T09:57:59.176Z,84
2024-02-01T09:59:05.532Z,84
2024-02-01T10:00:10.674Z,84
2024-02-01T10:02:22.819Z,78
2024-02-01T10:03:28.819Z,84
2024-02-01T10:04:35.129Z,90
2024-02-01T10:05:41.318Z,90
2024-02-01T10:06:47.481Z,90
2024-02-01T10:07:53.729Z,90
2024-02-01T10:08:59.715Z,90
2024-02-01T10:10:05.879Z,78
2024-02-01T10:11:12.136Z,67
2024-02-01T10:12:18.258Z,61
2024-02-01T10:13:24.373Z,67
2024-02-01T10:14:29.600Z,67
2024-02-01T10:15:35.584Z,73
2024-02-01T10:16:41.689Z,73
2024-02-01T10:17:47.758Z,73
2024-02-01T10:18:54.151Z,73
2024-02-01T10:20:00.293Z,73
2024-02-01T10:21:06.436Z,78
2024-02-01T10:22:12.560Z,84
2024-02-01T10:23:18.587Z,101
2024-02-01T10:24:24.915Z,118
2024-02-01T10:25:30.695Z,129
2024-02-01T10:26:37.084Z,135
2024-02-01T10:27:43.281Z,129
2024-02-01T10:28:48.437Z,118
2024-02-01T10:29:54.421Z,95
2024-02-01T10:31:00.633Z,84
2024-02-01T10:32:06.678Z,73
2024-02-01T10:33:12.733Z,78
2024-02-01T10:34:19.158Z,78
2024-02-01T10:35:25.018Z,78
2024-02-01T10:36:31.322Z,67
2024-02-01T10:37:37.483Z,50
2024-02-01T10:38:43.622Z,39
2024-02-01T10:39:49.703Z,33
2024-02-01T10:40:56.019Z,45
2024-02-01T10:42:02.097Z,39
2024-02-01T10:43:07.243Z,39
2024-02-01T10:44:13.418Z,28
2024-02-01T10:45:19.545Z,39
2024-02-01T10:46:25.452Z,33
2024-02-01T10:47:31.672Z,50
2024-02-01T10:48:37.911Z,56
2024-02-01T10:49:44.182Z,61
2024-02-01T10:50:50.285Z,61
2024-02-01T10:51:56.385Z,67
2024-02-01T10:53:02.421Z,61
2024-02-01T10:54:08.831Z,50
2024-02-01T10:55:14.976Z,56
2024-02-01T10:56:20.918Z,56
2024-02-01T10:57:25.903Z,56
2024-02-01T10:58:32.372Z,50
2024-02-01T10:59:38.482Z,45
2024-02-01T11:00:44.629Z,45
2024-02-01T11:01:50.790Z,45
2024-02-01T11:02:56.970Z,45
2024-02-01T11:04:03.093Z,50
2024-02-01T11:05:09.211Z,61
2024-02-01T11:06:15.345Z,73
2024-02-01T11:07:21.206Z,78
2024-02-01T11:08:27.619Z,61
2024-02-01T11:09:33.737Z,56
2024-02-01T11:10:39.757Z,45
2024-02-01T11:11:44.916Z,45
2024-02-01T11:12:51.299Z,50
2024-02-01T11:13:57.485Z,61
2024-02-01T11:15:03.344Z,67
2024-02-01T11:16:09.846Z,78
2024-02-01T11:17:15.806Z,84
2024-02-01T11:18:21.776Z,84
2024-02-01T11:19:27.932Z,67
2024-02-01T11:20:34.361Z,61
2024-02-01T11:21:40.453Z,78
2024-02-01T11:22:46.787Z,95
2024-02-01T11:23:52.937Z,95
2024-02-01T11:24:58.882Z,90
2024-02-01T11:26:04.761Z,84
2024-02-01T11:27:10.239Z,84
2024-02-01T11:28:16.373Z,84
2024-02-01T11:29:22.210Z,78
2024-02-01T11:30:28.700Z,73
2024-02-01T11:31:34.498Z,90
2024-02-01T11:32:40.681Z,90
2024-02-01T11:33:47.028Z,84
2024-02-01T11:34:53.336Z,73
2024-02-01T11:35:59.426Z,67
2024-02-01T11:37:05.397Z,78
2024-02-01T11:38:11.627Z,78
2024-02-01T11:39:17.498Z,101
2024-02-01T11:40:23.825Z,84
2024-02-01T11:41:28.857Z,67
2024-02-01T11:42:35.148Z,67
2024-02-01T11:43:41.401Z,78
2024-02-01T11:44:47.443Z,90
2024-02-01T11:45:53.506Z,118
2024-02-01T11:46:59.637Z,112
2024-02-01T11:48:05.668Z,118
2024-02-01T11:49:12.014Z,135
2024-02-01T11:50:17.980Z,163
2024-02-01T11:51:24.101Z,151
2024-02-01T11:52:30.232Z,129
2024-02-01T11:53:36.378Z,112
2024-02-01T11:54:42.581Z,123
2024-02-01T11:55:48.783Z,118
2024-02-01T11:56:53.941Z,129
2024-02-01T11:58:00.294Z,123
2024-02-01T11:59:06.201Z,151
2024-02-01T12:00:12.257Z,151
2024-02-01T12:01:18.525Z,151
2024-02-01T12:02:24.574Z,157
2024-02-01T12:03:30.709Z,123
2024-02-01T12:04:36.835Z,129
2024-02-01T12:05:43.034Z,146
2024-02-01T12:06:49.230Z,163
2024-02-01T12:07:55.294Z,163
2024-02-01T12:09:01.529Z,168
2024-02-01T12:10:07.543Z,168
2024-02-01T12:11:12.916Z,157
2024-02-01T12:12:18.908Z,140
2024-02-01T12:13:25.076Z,163
2024-02-01T12:14:31.328Z,123
2024-02-01T12:15:37.371Z,236
2024-02-01T12:16:43.543Z,135
2024-02-01T12:17:49.788Z,95
2024-02-01T12:18:55.805Z,174
2024-02-01T12:20:01.851Z,118
2024-02-01T12:21:08.066Z,146
2024-02-01T12:22:14.143Z,140
2024-02-01T12:23:20.354Z,106
2024-02-01T12:24:26.460Z,129
2024-02-01T12:25:31.684Z,129
2024-02-01T12:26:37.727Z,208
2024-02-01T12:27:43.902Z,140
2024-02-01T12:28:50.099Z,101
2024-02-01T12:29:56.186Z,146
2024-02-01T12:31:02.432Z,90
2024-02-01T12:32:08.544Z,84
2024-02-01T12:33:14.669Z,129
2024-02-01T12:34:20.802Z,101
2024-02-01T12:35:27.009Z,84
2024-02-01T12:36:33.010Z,95
2024-02-01T12:37:39.170Z,123
2024-02-01T12:38:45.309Z,73
2024-02-01T12:39:50.481Z,112
2024-02-01T12:40:56.638Z,101
2024-02-01T12:42:02.829Z,118
2024-02-01T12:43:08.886Z,95
2024-02-01T12:44:15.141Z,84
2024-02-01T12:46:27.593Z,84
2024-02-01T12:47:33.693Z,95
2024-02-01T12:48:39.727Z,118
2024-02-01T12:49:45.771Z,112
2024-02-01T12:50:52.085Z,118
2024-02-01T12:51:58.028Z,101
2024-02-01T12:53:04.179Z,95
2024-02-01T12:54:09.343Z,112
2024-02-01T12:55:15.778Z,78
2024-02-01T12:56:21.720Z,90
2024-02-01T12:57:27.933Z,67
2024-02-01T12:58:33.916Z,90
2024-02-01T12:59:40.198Z,84
2024-02-01T13:00:46.342Z,90
2024-02-01T13:01:52.515Z,84
2024-02-01T13:02:58.552Z,84
2024-02-01T13:04:04.638Z,123
2024-02-01T13:05:10.783Z,90
2024-02-01T13:06:16.910Z,90
2024-02-01T13:07:23.061Z,106
2024-02-01T13:08:28.230Z,84
2024-02-01T13:09:34.361Z,73
2024-02-01T13:10:40.509Z,95
2024-02-01T13:11:46.847Z,90
2024-02-01T13:12:52.887Z,73
2024-02-01T13:13:59.220Z,67
2024-02-01T13:15:05.074Z,78
2024-02-01T13:16:11.210Z,73
2024-02-01T13:17:17.520Z,67
2024-02-01T13:18:23.507Z,67
2024-02-01T13:19:29.677Z,61
2024-02-01T13:20:35.843Z,73
2024-02-01T13:21:42.102Z,67
2024-02-01T13:22:47.099Z,61
2024-02-01T13:23:52.395Z,67
2024-02-01T13:24:58.410Z,84
2024-02-01T13:26:04.565Z,73
2024-02-01T13:27:10.691Z,56
2024-02-01T13:28:16.886Z,50
2024-02-01T13:29:23.040Z,56
2024-02-01T13:30:29.163Z,56
2024-02-01T13:31:35.292Z,39
2024-02-01T13:32:41.426Z,39
2024-02-01T13:33:47.681Z,39
2024-02-01T13:34:53.712Z,39
2024-02-01T13:35:59.838Z,33
2024-02-01T13:37:06.052Z,33
2024-02-01T13:38:12.226Z,39
2024-02-01T13:39:17.346Z,33
2024-02-01T13:40:23.433Z,33
2024-02-01T13:41:29.716Z,28
2024-02-01T13:42:35.746Z,33
2024-02-01T13:43:41.968Z,39
2024-02-01T13:44:47.997Z,33
2024-02-01T13:45:54.247Z,33
2024-02-01T13:47:00.435Z,33
2024-02-01T13:48:06.520Z,33
2024-02-01T13:49:12.630Z,39
2024-02-01T13:50:18.721Z,39
2024-02-01T13:51:24.982Z,39
2024-02-01T13:52:31.177Z,28
2024-02-01T13:53:36.334Z,28
2024-02-01T13:55:48.632Z,28
2024-02-01T13:56:54.585Z,28
2024-02-01T13:58:00.847Z,28
2024-02-01T13:59:07.020Z,28
2024-02-01T14:00:13.167Z,33
2024-02-01T14:01:19.244Z,33
2024-02-01T14:02:25.407Z,39
2024-02-01T14:03:31.450Z,33
2024-02-01T14:04:37.885Z,39
2024-02-01T14:05:43.876Z,33
2024-02-01T14:06:49.907Z,45
2024-02-01T14:07:55.089Z,33
2024-02-01T14:10:07.407Z,39
2024-02-01T14:11:13.718Z,45
2024-02-01T14:12:19.790Z,39
2024-02-01T14:13:25.976Z,45
2024-02-01T14:14:31.971Z,45
2024-02-01T14:15:38.049Z,45
2024-02-01T14:16:44.181Z,45
2024-02-01T14:17:50.491Z,45
2024-02-01T14:20:02.619Z,39
2024-02-01T14:21:08.833Z,45
2024-02-01T14:22:13.918Z,39
2024-02-01T14:23:20.067Z,39
2024-02-01T14:24:26.208Z,39
2024-02-01T14:25:32.481Z,33
2024-02-01T14:26:38.686Z,33
2024-02-01T14:27:44.658Z,28
2024-02-01T14:28:50.781Z,39
2024-02-01T14:29:57.191Z,33
2024-02-01T14:31:03.179Z,33
2024-02-01T14:32:09.515Z,22
2024-02-01T14:33:15.525Z,16
2024-02-01T14:34:21.488Z,22
2024-02-01T14:35:27.714Z,22
2024-02-01T14:36:32.861Z,22
2024-02-01T14:37:38.944Z,16
2024-02-01T14:38:45.138Z,16
2024-02-01T14:39:51.393Z,16
2024-02-01T14:40:57.397Z,16
2024-02-01T14:42:03.832Z,16
2024-02-01T14:43:09.763Z,16
2024-02-01T14:44:15.905Z,22
2024-02-01T14:45:22.161Z,22
2024-02-01T14:46:28.254Z,22
2024-02-01T14:47:34.322Z,16
2024-02-01T14:48:40.518Z,16
2024-02-01T14:49:46.750Z,16
2024-02-01T14:50:51.803Z,22
2024-02-01T14:53:04.097Z,16
2024-02-01T14:54:10.259Z,16
2024-02-01T14:55:16.417Z,16
2024-02-01T14:56:22.479Z,16
2024-02-01T14:57:28.563Z,16
2024-02-01T14:58:34.671Z,16
2024-02-01T14:59:40.841Z,16
2024-02-01T15:00:47.130Z,16
2024-02-01T15:01:53.110Z,16
2024-02-01T15:02:59.615Z,16
2024-02-01T15:04:05.543Z,22
2024-02-01T15:05:10.580Z,16
2024-02-01T15:06:16.961Z,16
2024-02-01T15:07:22.864Z,16
2024-02-01T15:08:28.978Z,16
2024-02-01T15:09:35.332Z,16
2024-02-01T15:10:41.454Z,22
2024-02-01T15:11:47.598Z,16
2024-02-01T15:12:53.777Z,16
2024-02-01T15:13:59.919Z,16
2024-02-01T15:15:05.953Z,16
2024-02-01T15:16:12.089Z,16
2024-02-01T15:17:18.297Z,11
2024-02-01T15:18:24.460Z,11
2024-02-01T15:19:29.541Z,11
2024-02-01T15:20:35.777Z,11
2024-02-01T15:21:41.837Z,11
2024-02-01T15:22:47.958Z,11
2024-02-01T15:23:54.236Z,16
2024-02-01T15:25:00.346Z,22
2024-02-01T15:26:06.383Z,16
2024-02-01T15:27:12.708Z,16
2024-02-01T15:28:18.702Z,22
2024-02-01T15:29:24.722Z,16
2024-02-01T15:30:31.019Z,16
2024-02-01T15:31:37.170Z,11
2024-02-01T15:32:43.272Z,11
2024-02-01T15:33:48.423Z,11
2024-02-01T15:34:54.510Z,11
2024-02-01T15:36:00.817Z,11
2024-02-01T15:37:06.867Z,11
2024-02-01T15:38:12.957Z,11
2024-02-01T15:39:19.088Z,5
2024-02-01T15:40:25.156Z,5
2024-02-01T15:41:31.430Z,5
2024-02-01T15:42:37.676Z,5
2024-02-01T15:43:43.803Z,5
2024-02-01T15:44:49.821Z,5
2024-02-01T15:45:55.887Z,5
2024-02-01T15:47:02.026Z,5
2024-02-01T15:48:07.192Z,5
2024-02-01T15:49:13.394Z,5
2024-02-01T15:50:19.824Z,5
2024-02-01T15:51:25.695Z,5
2024-02-01T15:52:31.934Z,5
2024-02-01T15:53:38.206Z,5
2024-02-01T15:54:44.080Z,5
2024-02-01T15:55:50.518Z,5
2024-02-01T15:56:56.631Z,5
2024-02-01T15:58:02.653Z,5
2024-02-01T15:59:08.883Z,5
2024-02-01T16:00:14.753Z,5
2024-02-01T16:01:21.068Z,5
2024-02-01T16:02:26.063Z,5
2024-02-01T16:03:32.472Z,5